Time;durP1;ratioP1;P1;durP2;ratioP2;P2;SDS_P1;SDS_P2;PMS_P1;PMS_P2;Temp;Humidity;BMP_temperature;BMP_pressure;BME280_temperature;BME280_humidity;BME280_pressure;Samples;Min_cycle;Max_cycle;Signal;HPM_P1;HPM_P2
2022/05/19 00:00:29;;;;;;;;;;;;;;;9.70;48.89;99245.63;1677002;84;21900;-88
2022/05/19 00:02:56;;;;;;;;;;;;;;;9.66;48.98;99243.16;1698291;83;21048;-88
2022/05/19 00:05:22;;;;;;;;;;;;;;;9.66;49.10;99248.84;1692418;83;20332;-83
2022/05/19 00:07:48;;;;;;;;;;;;;;;9.70;49.27;99246.93;1686027;85;20495;-87
2022/05/19 00:10:14;;;;;;;;;;;;;;;9.69;49.39;99249.16;1683314;84;20259;-87
2022/05/19 00:12:40;;;;;;;;;;;;;;;9.66;49.57;99244.47;1725170;82;20291;-88
2022/05/19 00:15:08;;;;;;;;;;;;;;;9.65;49.75;99244.57;1708511;83;21022;-83
2022/05/19 00:17:34;;;;;;;;;;;;;;;9.69;49.95;99247.39;1736215;81;24432;-85
2022/05/19 00:20:00;;;;;;;;;;;;;;;9.72;50.17;99241.98;1736293;81;20710;-84
2022/05/19 00:22:26;;;;;;;;;;;;;;;9.77;50.31;99240.43;1739403;81;24842;-85
2022/05/19 00:25:02;;;;;;;;;;;;;;;9.79;50.50;99242.51;1738354;81;21855;-83
2022/05/19 00:27:26;;;;;;;;;;;;;;;9.77;50.69;99240.43;1741803;81;26873;-88
2022/05/19 00:29:52;;;;;;;;;;;;;;;9.72;50.88;99235.91;1748119;81;24501;-83
2022/05/19 00:32:18;;;;;;;;;;;;;;;9.72;51.04;99241.14;1747094;81;20484;-84
2022/05/19 00:34:44;;;;;;;;;;;;;;;9.77;51.23;99237.81;1747037;81;24896;-85
2022/05/19 00:37:10;;;;;;;;;;;;;;;9.80;51.42;99234.59;1745753;80;21944;-85
2022/05/19 00:39:36;;;;;;;;;;;;;;;9.89;51.59;99239.31;1719967;82;25941;-83
2022/05/19 00:44:46;;;;;;;;;;;;;;;9.97;51.87;99240.22;1712186;81;20228;-82
2022/05/19 00:47:14;;;;;;;;;;;;;;;9.96;52.02;99238.52;1708775;81;20529;-84
2022/05/19 00:49:42;;;;;;;;;;;;;;;9.95;52.13;99232.45;1710707;81;21962;-85
2022/05/19 00:52:14;;;;;;;;;;;;;;;9.94;52.22;99233.37;1690352;83;25985;-83
2022/05/19 00:54:42;;;;;;;;;;;;;;;9.89;52.29;99235.85;1679200;83;24559;-83
2022/05/19 00:57:15;;;;;;;;;;;;;;;9.89;52.36;99233.23;1714184;82;20426;-83
2022/05/19 00:59:43;;;;;;;;;;;;;;;9.82;52.47;99235.34;1708968;82;24743;-83
2022/05/19 01:02:11;;;;;;;;;;;;;;;9.77;52.58;99234.73;1710360;82;21955;-82
2022/05/19 01:04:38;;;;;;;;;;;;;;;9.68;52.70;99237.01;1703500;82;26055;-83
2022/05/19 01:07:07;;;;;;;;;;;;;;;9.46;52.84;99239.91;1684177;84;24739;-83
2022/05/19 01:09:39;;;;;;;;;;;;;;;9.23;52.95;99242.41;1707082;81;20142;-87
2022/05/19 01:12:07;;;;;;;;;;;;;;;9.04;53.08;99245.59;1708458;81;24684;-85
2022/05/19 01:14:33;;;;;;;;;;;;;;;8.91;53.22;99241.89;1713641;81;21419;-87
2022/05/19 01:17:00;;;;;;;;;;;;;;;8.89;53.45;99242.45;1714260;81;21193;-88
2022/05/19 01:19:37;;;;;;;;;;;;;;;8.94;53.72;99243.06;1701509;82;24501;-87
2022/05/19 01:22:04;;;;;;;;;;;;;;;8.98;54.01;99244.59;1656241;85;20225;-83
2022/05/19 01:24:33;;;;;;;;;;;;;;;9.05;54.32;99245.98;1679309;83;25495;-83
2022/05/19 01:27:06;;;;;;;;;;;;;;;9.03;54.60;99243.44;1674584;84;22062;-83
2022/05/19 01:29:33;;;;;;;;;;;;;;;8.92;54.78;99243.59;1696795;83;26050;-83
2022/05/19 01:32:00;;;;;;;;;;;;;;;8.88;55.03;99245.52;1647010;85;24441;-84
2022/05/19 01:34:28;;;;;;;;;;;;;;;8.97;55.34;99247.66;1681502;83;20186;-85
2022/05/19 01:36:54;;;;;;;;;;;;;;;8.95;55.57;99243.42;1673325;83;24835;-83
2022/05/19 01:39:22;;;;;;;;;;;;;;;8.93;55.81;99240.91;1690774;82;21965;-83
2022/05/19 01:41:53;;;;;;;;;;;;;;;8.88;56.04;99243.37;1718032;83;26094;-83
2022/05/19 01:44:36;;;;;;;;;;;;;;;8.79;56.27;99242.89;1733675;82;24648;-82
2022/05/19 01:47:07;;;;;;;;;;;;;;;8.83;56.59;99243.60;1738312;82;20244;-83
2022/05/19 01:49:44;;;;;;;;;;;;;;;8.69;56.75;99235.59;1740310;82;24825;-83
2022/05/19 01:52:17;;;;;;;;;;;;;;;8.52;56.85;99241.63;1736522;81;22902;-88
2022/05/19 01:55:03;;;;;;;;;;;;;;;8.45;57.04;99238.11;1737956;81;25727;-87
2022/05/19 01:57:48;;;;;;;;;;;;;;;8.32;57.40;99237.84;1740305;80;24493;-87
2022/05/19 02:00:19;;;;;;;;;;;;;;;8.30;57.81;99235.76;1711173;83;20243;-87
2022/05/19 02:02:47;;;;;;;;;;;;;;;8.28;58.22;99236.28;1743397;81;24742;-84
2022/05/19 02:05:15;;;;;;;;;;;;;;;8.51;58.72;99231.30;1758244;81;22996;-85
2022/05/19 02:07:46;;;;;;;;;;;;;;;8.60;59.07;99234.75;1749093;81;26052;-85
2022/05/19 02:10:17;;;;;;;;;;;;;;;8.58;59.33;99228.75;1752352;81;24436;-85
2022/05/19 02:12:44;;;;;;;;;;;;;;;8.60;59.61;99228.23;1752858;81;20252;-88
2022/05/19 02:15:12;;;;;;;;;;;;;;;8.69;59.89;99230.38;1755269;81;25557;-85
2022/05/19 02:17:42;;;;;;;;;;;;;;;8.65;60.09;99224.48;1754219;81;22861;-85
2022/05/19 02:20:15;;;;;;;;;;;;;;;8.61;60.28;99224.25;1756578;81;26046;-83
2022/05/19 02:22:40;;;;;;;;;;;;;;;8.55;60.45;99222.39;1751800;80;24467;-85
2022/05/19 02:25:23;;;;;;;;;;;;;;;8.48;60.62;99217.93;1753808;81;20163;-85
2022/05/19 02:27:53;;;;;;;;;;;;;;;8.45;60.81;99223.31;1751727;81;24940;-85
2022/05/19 02:30:23;;;;;;;;;;;;;;;8.37;61.01;99217.61;1755060;81;22061;-85
2022/05/19 02:32:51;;;;;;;;;;;;;;;8.29;61.21;99217.11;1750420;81;26024;-83
2022/05/19 02:35:20;;;;;;;;;;;;;;;8.28;61.52;99225.39;1753974;81;24561;-83
2022/05/19 02:37:46;;;;;;;;;;;;;;;8.25;61.73;99228.58;1756560;81;20253;-82
2022/05/19 02:40:13;;;;;;;;;;;;;;;8.15;61.86;99227.34;1755364;81;20257;-83
2022/05/19 02:42:40;;;;;;;;;;;;;;;8.10;62.12;99226.26;1752042;81;22636;-85
2022/05/19 02:45:17;;;;;;;;;;;;;;;8.18;62.42;99228.02;1753280;81;26693;-87
2022/05/19 02:47:49;;;;;;;;;;;;;;;8.24;62.69;99233.41;1755735;81;24413;-83
2022/05/19 02:50:16;;;;;;;;;;;;;;;8.34;63.01;99223.83;1753105;81;20516;-84
2022/05/19 02:52:42;;;;;;;;;;;;;;;8.43;63.26;99229.51;1751805;81;24226;-82
2022/05/19 02:55:10;;;;;;;;;;;;;;;8.42;63.41;99232.57;1755392;81;21879;-87
2022/05/19 02:57:36;;;;;;;;;;;;;;;8.44;63.62;99233.35;1751969;81;25983;-87
2022/05/19 03:00:04;;;;;;;;;;;;;;;8.44;63.82;99226.83;1753797;80;24495;-87
2022/05/19 03:02:30;;;;;;;;;;;;;;;8.42;63.97;99229.12;1755637;81;20250;-85
2022/05/19 03:04:58;;;;;;;;;;;;;;;8.29;64.10;99230.16;1755711;81;24912;-85
2022/05/19 03:07:24;;;;;;;;;;;;;;;8.17;64.24;99226.81;1754335;81;22012;-83
2022/05/19 03:09:50;;;;;;;;;;;;;;;8.17;64.50;99235.94;1753529;81;25993;-83
2022/05/19 03:12:16;;;;;;;;;;;;;;;8.17;64.71;99226.81;1754790;81;24606;-88
2022/05/19 03:14:42;;;;;;;;;;;;;;;8.05;64.88;99223.48;1753272;81;20383;-85
2022/05/19 03:17:09;;;;;;;;;;;;;;;7.94;65.06;99220.08;1757512;81;24756;-84
2022/05/19 03:19:37;;;;;;;;;;;;;;;7.89;65.29;99220.29;1758214;81;21962;-83
2022/05/19 03:22:03;;;;;;;;;;;;;;;7.84;65.57;99222.27;1754718;81;26022;-88
2022/05/19 03:24:29;;;;;;;;;;;;;;;7.80;65.87;99218.09;1753421;80;24521;-82
2022/05/19 03:26:58;;;;;;;;;;;;;;;7.74;66.16;99207.98;1756101;81;20147;-82
2022/05/19 03:29:24;;;;;;;;;;;;;;;7.81;66.53;99214.58;1753774;81;24798;-87
2022/05/19 03:31:52;;;;;;;;;;;;;;;7.86;66.91;99214.36;1755141;81;22056;-83
2022/05/19 03:34:21;;;;;;;;;;;;;;;7.93;67.32;99215.31;1752586;81;26601;-83
2022/05/19 03:36:49;;;;;;;;;;;;;;;7.97;67.72;99219.91;1753714;81;24650;-83
2022/05/19 03:39:15;;;;;;;;;;;;;;;8.03;68.17;99217.02;1757741;81;20214;-83
2022/05/19 03:41:44;;;;;;;;;;;;;;;8.15;68.72;99216.91;1754611;81;24856;-82
2022/05/19 03:44:10;;;;;;;;;;;;;;;8.26;69.14;99222.00;1754607;80;22103;-83
2022/05/19 03:46:37;;;;;;;;;;;;;;;8.47;69.61;99220.15;1751229;81;26092;-82
2022/05/19 03:49:03;;;;;;;;;;;;;;;8.54;69.93;99218.94;1748374;81;24545;-87
2022/05/19 03:51:30;;;;;;;;;;;;;;;8.66;70.26;99220.95;1752861;81;20243;-85
2022/05/19 03:53:59;;;;;;;;;;;;;;;8.79;70.56;99222.02;1754775;81;25505;-83
2022/05/19 03:56:25;;;;;;;;;;;;;;;8.97;70.87;99212.88;1752462;81;22031;-87
2022/05/19 03:58:52;;;;;;;;;;;;;;;9.03;71.09;99215.17;1756725;81;20967;-83
2022/05/19 04:01:19;;;;;;;;;;;;;;;9.13;71.35;99210.70;1752454;81;24507;-83
2022/05/19 04:03:46;;;;;;;;;;;;;;;9.13;71.54;99215.08;1754811;81;20275;-83
2022/05/19 04:06:12;;;;;;;;;;;;;;;9.29;71.91;99218.59;1754157;81;24916;-87
2022/05/19 04:08:38;;;;;;;;;;;;;;;9.37;72.18;99219.05;1752600;81;20277;-88
2022/05/19 04:11:04;;;;;;;;;;;;;;;9.60;72.57;99225.19;1753155;81;25958;-83
2022/05/19 04:13:30;;;;;;;;;;;;;;;9.86;73.06;99214.66;1753141;80;24472;-88
2022/05/19 04:16:04;;;;;;;;;;;;;;;10.05;73.35;99214.02;1753280;81;20481;-84
2022/05/19 04:18:30;;;;;;;;;;;;;;;10.28;73.70;99214.55;1754065;81;24695;-84
2022/05/19 04:20:56;;;;;;;;;;;;;;;10.51;74.05;99218.02;1755050;81;20326;-83
2022/05/19 04:23:22;;;;;;;;;;;;;;;10.77;74.21;99216.05;1754822;81;20928;-83
2022/05/19 04:25:48;;;;;;;;;;;;;;;11.00;74.21;99219.09;1754084;81;20253;-83
2022/05/19 04:28:14;;;;;;;;;;;;;;;11.06;74.14;99220.89;1752048;81;20880;-84
2022/05/19 04:30:44;;;;;;;;;;;;;;;11.19;73.94;99217.91;1751550;81;24705;-85
2022/05/19 04:33:12;;;;;;;;;;;;;;;11.32;73.56;99217.55;1718385;82;22830;-83
2022/05/19 04:35:39;;;;;;;;;;;;;;;11.49;73.25;99218.31;1736754;82;26773;-83
2022/05/19 04:38:09;;;;;;;;;;;;;;;11.60;72.90;99213.25;1737819;80;24615;-88
2022/05/19 04:40:37;;;;;;;;;;;;;;;11.61;72.36;99221.50;1686390;84;20442;-84
2022/05/19 04:43:03;;;;;;;;;;;;;;;11.61;71.85;99217.56;1694634;84;24835;-83
2022/05/19 04:45:29;;;;;;;;;;;;;;;11.64;71.41;99210.81;1743764;81;22028;-82
2022/05/19 04:47:55;;;;;;;;;;;;;;;11.67;71.03;99213.26;1743911;81;26038;-83
2022/05/19 04:50:21;;;;;;;;;;;;;;;11.71;70.73;99216.05;1742936;81;20852;-83
2022/05/19 04:52:47;;;;;;;;;;;;;;;11.72;70.36;99218.59;1746538;81;20281;-85
2022/05/19 04:55:13;;;;;;;;;;;;;;;11.73;70.08;99224.22;1744689;81;24747;-85
2022/05/19 04:57:41;;;;;;;;;;;;;;;11.78;69.90;99223.11;1743788;81;22038;-85
2022/05/19 05:00:09;;;;;;;;;;;;;;;11.81;69.66;99229.00;1727588;82;26161;-83
2022/05/19 05:02:35;;;;;;;;;;;;;;;11.86;69.42;99228.70;1731388;80;24429;-84
2022/05/19 05:05:01;;;;;;;;;;;;;;;11.91;69.37;99227.48;1705770;83;20268;-85
2022/05/19 05:07:27;;;;;;;;;;;;;;;12.02;69.34;99233.36;1703094;83;24586;-84
2022/05/19 05:09:53;;;;;;;;;;;;;;;12.14;69.27;99233.91;1703446;83;22051;-83
2022/05/19 05:12:19;;;;;;;;;;;;;;;12.23;69.13;99237.72;1683636;82;20949;-87
2022/05/19 05:14:45;;;;;;;;;;;;;;;12.32;69.09;99230.59;1746653;81;24527;-85
2022/05/19 05:17:11;;;;;;;;;;;;;;;12.42;68.99;99232.98;1746238;81;20867;-85
2022/05/19 05:19:37;;;;;;;;;;;;;;;12.53;68.96;99235.77;1744690;81;20784;-85
2022/05/19 05:22:13;;;;;;;;;;;;;;;12.65;68.93;99236.28;1745195;81;20754;-84
2022/05/19 05:24:45;;;;;;;;;;;;;;;12.78;68.89;99238.45;1746469;81;26222;-83
2022/05/19 05:27:11;;;;;;;;;;;;;;;12.87;68.76;99237.84;1743547;81;24535;-87
2022/05/19 05:29:38;;;;;;;;;;;;;;;12.93;68.54;99242.69;1742613;81;20344;-83
2022/05/19 05:32:04;;;;;;;;;;;;;;;12.99;68.26;99244.06;1745493;81;24865;-85
2022/05/19 05:34:30;;;;;;;;;;;;;;;13.08;68.11;99245.25;1745448;81;22031;-88
2022/05/19 05:36:56;;;;;;;;;;;;;;;13.17;68.03;99240.72;1745464;81;26048;-83
2022/05/19 05:39:22;;;;;;;;;;;;;;;13.27;68.02;99243.09;1745251;81;20871;-85
2022/05/19 05:41:51;;;;;;;;;;;;;;;13.36;67.87;99245.11;1742924;82;20788;-83
2022/05/19 05:44:17;;;;;;;;;;;;;;;13.46;67.72;99249.27;1739159;82;24902;-85
2022/05/19 05:46:44;;;;;;;;;;;;;;;13.53;67.47;99241.33;1737280;82;21967;-83
2022/05/19 05:49:14;;;;;;;;;;;;;;;13.61;67.43;99250.36;1737775;80;26130;-83
2022/05/19 05:51:40;;;;;;;;;;;;;;;13.64;67.21;99240.92;1735623;82;25085;-83
2022/05/19 05:54:19;;;;;;;;;;;;;;;13.71;67.06;99243.50;1775601;80;20159;-83
2022/05/19 05:56:45;;;;;;;;;;;;;;;13.79;67.00;99249.09;1737001;82;24743;-87
2022/05/19 05:59:11;;;;;;;;;;;;;;;13.89;67.00;99244.02;1739169;80;21960;-85
2022/05/19 06:01:37;;;;;;;;;;;;;;;13.99;66.96;99245.04;1735690;82;25951;-84
2022/05/19 06:04:03;;;;;;;;;;;;;;;14.05;66.91;99243.30;1739791;82;20817;-84
2022/05/19 06:06:30;;;;;;;;;;;;;;;14.15;66.89;99247.42;1742077;82;20430;-83
2022/05/19 06:08:56;;;;;;;;;;;;;;;14.23;66.91;99247.26;1738029;82;24855;-82
2022/05/19 06:11:22;;;;;;;;;;;;;;;14.33;66.69;99243.95;1736640;80;20248;-85
2022/05/19 06:13:50;;;;;;;;;;;;;;;14.41;66.36;99243.78;1736697;82;26000;-83
2022/05/19 06:16:16;;;;;;;;;;;;;;;14.51;66.02;99240.02;1734438;82;25084;-83
2022/05/19 06:18:42;;;;;;;;;;;;;;;14.58;65.85;99244.72;1741281;82;20489;-83
2022/05/19 06:21:08;;;;;;;;;;;;;;;14.67;65.63;99242.38;1742372;82;24779;-84
2022/05/19 06:23:34;;;;;;;;;;;;;;;14.76;65.35;99245.16;1736293;82;21935;-88
2022/05/19 06:26:01;;;;;;;;;;;;;;;14.83;65.11;99241.60;1736983;82;20964;-85
2022/05/19 06:28:27;;;;;;;;;;;;;;;14.91;64.53;99243.17;1742866;82;24487;-85
2022/05/19 06:30:53;;;;;;;;;;;;;;;14.98;64.37;99245.72;1737499;82;20430;-85
2022/05/19 06:33:22;;;;;;;;;;;;;;;15.04;64.10;99236.88;1732516;82;24775;-84
2022/05/19 06:35:47;;;;;;;;;;;;;;;15.14;63.74;99230.43;1739411;81;21997;-85
2022/05/19 06:38:13;;;;;;;;;;;;;;;15.25;63.48;99240.16;1740797;82;26872;-85
2022/05/19 06:40:40;;;;;;;;;;;;;;;15.31;63.07;99238.37;1738787;82;20250;-85
2022/05/19 06:43:07;;;;;;;;;;;;;;;15.38;62.72;99236.45;1727407;82;20473;-85
2022/05/19 06:45:33;;;;;;;;;;;;;;;15.47;62.44;99232.28;1736300;82;25431;-83
2022/05/19 06:48:00;;;;;;;;;;;;;;;15.52;62.03;99235.44;1735822;82;20239;-83
2022/05/19 06:50:26;;;;;;;;;;;;;;;15.62;61.95;99234.23;1739390;82;26006;-83
2022/05/19 06:52:53;;;;;;;;;;;;;;;15.68;61.69;99234.61;1736862;82;24514;-83
2022/05/19 06:55:25;;;;;;;;;;;;;;;15.76;61.50;99228.75;1736016;82;20396;-84
2022/05/19 06:57:53;;;;;;;;;;;;;;;15.83;61.23;99224.16;1725141;82;26187;-84
2022/05/19 07:00:19;;;;;;;;;;;;;;;15.93;60.66;99237.47;1728288;82;21959;-83
2022/05/19 07:02:48;;;;;;;;;;;;;;;16.07;60.33;99232.44;1740992;81;25386;-83
2022/05/19 07:05:22;;;;;;;;;;;;;;;16.18;59.88;99230.63;1743085;81;23891;-88
2022/05/19 07:07:50;;;;;;;;;;;;;;;16.31;59.43;99231.30;1740976;81;20231;-88
2022/05/19 07:10:18;;;;;;;;;;;;;;;16.45;59.11;99229.34;1744916;81;24822;-88
2022/05/19 07:12:45;;;;;;;;;;;;;;;16.55;58.69;99235.56;1739194;81;22089;-83
2022/05/19 07:15:12;;;;;;;;;;;;;;;16.58;58.16;99238.78;1741722;81;26084;-88
2022/05/19 07:17:39;;;;;;;;;;;;;;;16.53;57.31;99229.07;1742354;81;24492;-88
2022/05/19 07:22:55;;;;;;;;;;;;;;;16.78;56.79;99233.23;1738024;81;25826;-83
2022/05/19 07:25:25;;;;;;;;;;;;;;;16.93;56.51;99233.77;1730108;82;20825;-83
2022/05/19 07:27:51;;;;;;;;;;;;;;;17.03;56.24;99231.54;1736914;82;25987;-88
2022/05/19 07:30:16;;;;;;;;;;;;;;;17.08;55.77;99229.83;1733587;82;20222;-85
2022/05/19 07:32:43;;;;;;;;;;;;;;;17.10;55.31;99228.75;1726523;82;20333;-84
2022/05/19 07:35:10;;;;;;;;;;;;;;;17.23;55.02;99233.02;1734381;82;24891;-83
2022/05/19 07:37:38;;;;;;;;;;;;;;;17.39;54.79;99236.04;1739023;82;21949;-85
2022/05/19 07:40:06;;;;;;;;;;;;;;;17.53;54.65;99223.77;1728677;81;26062;-83
2022/05/19 07:42:31;;;;;;;;;;;;;;;17.60;54.22;99228.94;1740706;82;24547;-84
2022/05/19 07:44:57;;;;;;;;;;;;;;;17.70;53.85;99225.84;1747390;81;20237;-84
2022/05/19 07:47:30;;;;;;;;;;;;;;;17.83;53.62;99222.50;1744726;81;20356;-83
2022/05/19 07:50:05;;;;;;;;;;;;;;;17.95;52.97;99228.03;1744631;81;22094;-84
2022/05/19 07:52:31;;;;;;;;;;;;;;;18.07;52.60;99225.27;1746551;81;26033;-84
2022/05/19 07:55:00;;;;;;;;;;;;;;;18.12;52.28;99222.57;1746085;81;24451;-83
2022/05/19 07:57:26;;;;;;;;;;;;;;;18.23;52.16;99226.92;1746997;80;20466;-85
2022/05/19 07:59:52;;;;;;;;;;;;;;;18.29;51.82;99224.57;1745550;81;24802;-83
2022/05/19 08:02:19;;;;;;;;;;;;;;;18.36;51.60;99222.22;1744131;81;22074;-85
2022/05/19 08:04:45;;;;;;;;;;;;;;;18.39;51.48;99217.47;1746884;81;26075;-85
2022/05/19 08:07:11;;;;;;;;;;;;;;;18.50;51.31;99212.53;1738449;82;24488;-88
2022/05/19 08:17:53;;;;;;;;;;;;;;;18.87;50.37;99214.06;1746385;81;26762;-86
2022/05/19 08:20:19;;;;;;;;;;;;;;;18.93;50.15;99213.47;1744802;81;20341;-86
2022/05/19 08:22:45;;;;;;;;;;;;;;;18.94;49.78;99214.31;1746807;81;20422;-86
2022/05/19 08:25:12;;;;;;;;;;;;;;;19.07;49.86;99208.23;1745590;81;20355;-86
2022/05/19 08:27:39;;;;;;;;;;;;;;;19.13;49.63;99203.70;1722740;81;21990;-85
2022/05/19 08:30:05;;;;;;;;;;;;;;;19.20;49.36;99203.48;1676298;85;26234;-88
2022/05/19 08:32:31;;;;;;;;;;;;;;;19.33;49.14;99204.00;1745382;81;24395;-88
2022/05/19 08:34:57;;;;;;;;;;;;;;;19.36;48.84;99198.91;1747392;81;20795;-88
2022/05/19 08:37:23;;;;;;;;;;;;;;;19.44;48.54;99204.31;1745933;81;24923;-88
2022/05/19 08:39:51;;;;;;;;;;;;;;;19.52;48.26;99193.86;1747743;81;20281;-89
2022/05/19 08:42:17;;;;;;;;;;;;;;;19.57;48.05;99184.96;1744645;81;26674;-85
2022/05/19 08:44:48;;;;;;;;;;;;;;;19.71;47.88;99184.95;1746854;81;24571;-85
2022/05/19 08:47:15;;;;;;;;;;;;;;;19.84;47.59;99185.47;1747699;81;20288;-85
2022/05/19 08:49:54;;;;;;;;;;;;;;;19.96;47.33;99183.81;1746433;81;24735;-85
2022/05/19 08:52:22;;;;;;;;;;;;;;;20.06;47.26;99185.08;1743650;81;22085;-85
2022/05/19 08:54:49;;;;;;;;;;;;;;;20.22;47.30;99193.72;1747701;81;27763;-85
2022/05/19 08:57:20;;;;;;;;;;;;;;;20.30;47.21;99189.31;1747971;81;24559;-88
2022/05/19 09:00:02;;;;;;;;;;;;;;;20.33;47.19;99187.73;1745614;81;20461;-83
2022/05/19 09:02:42;;;;;;;;;;;;;;;20.46;47.16;99188.67;1743387;81;24798;-85
2022/05/19 09:05:10;;;;;;;;;;;;;;;20.60;46.82;99188.16;1749005;80;22072;-84
2022/05/19 09:10:28;;;;;;;;;;;;;;;20.78;45.94;99186.84;1697797;81;24533;-85
2022/05/19 09:12:56;;;;;;;;;;;;;;;20.86;45.55;99185.06;1744737;81;20337;-85
2022/05/19 09:15:22;;;;;;;;;;;;;;;20.92;45.08;99186.27;1745405;81;24792;-83
2022/05/19 09:17:51;;;;;;;;;;;;;;;21.00;44.84;99182.33;1745670;81;21959;-83
2022/05/19 09:20:18;;;;;;;;;;;;;;;21.09;44.65;99176.59;1744596;81;21132;-88
2022/05/19 09:22:44;;;;;;;;;;;;;;;21.20;44.47;99183.86;1735363;81;24602;-85
2022/05/19 09:25:12;;;;;;;;;;;;;;;21.28;44.21;99181.23;1676671;84;20269;-83
2022/05/19 09:27:40;;;;;;;;;;;;;;;21.35;44.11;99186.78;1706823;82;25613;-83
2022/05/19 09:30:08;;;;;;;;;;;;;;;21.43;43.89;99183.34;1686042;85;21994;-83
2022/05/19 09:32:39;;;;;;;;;;;;;;;21.52;43.89;99185.89;1684360;85;26107;-89
2022/05/19 09:35:06;;;;;;;;;;;;;;;21.56;43.62;99179.24;1735801;82;24449;-88
2022/05/19 09:37:37;;;;;;;;;;;;;;;21.61;43.36;99172.10;1686000;83;20279;-84
2022/05/19 09:43:12;;;;;;;;;;;;;;;21.70;42.66;99171.16;1745887;81;21975;-84
2022/05/19 09:45:40;;;;;;;;;;;;;;;21.74;42.35;99170.34;1746325;81;25994;-88
2022/05/19 09:48:07;;;;;;;;;;;;;;;21.84;42.07;99169.22;1744782;80;25129;-85
2022/05/19 09:50:38;;;;;;;;;;;;;;;21.93;41.90;99161.58;1745783;81;20187;-83
2022/05/19 09:53:06;;;;;;;;;;;;;;;21.97;41.64;99159.48;1745095;81;24845;-83
2022/05/19 09:55:37;;;;;;;;;;;;;;;22.01;41.52;99150.98;1752245;80;23135;-89
2022/05/19 09:58:02;;;;;;;;;;;;;;;22.08;41.43;99142.69;1731121;82;25984;-84
2022/05/19 10:00:46;;;;;;;;;;;;;;;22.21;41.36;99140.86;1728546;82;24393;-84
2022/05/19 10:03:16;;;;;;;;;;;;;;;22.31;41.25;99138.88;1747266;81;20219;-84
2022/05/19 10:05:45;;;;;;;;;;;;;;;22.33;41.00;99139.56;1747164;80;24828;-84
2022/05/19 10:08:16;;;;;;;;;;;;;;;22.43;40.97;99139.40;1747462;81;22083;-89
2022/05/19 10:10:49;;;;;;;;;;;;;;;22.49;40.66;99140.91;1747601;81;25974;-88
2022/05/19 10:13:17;;;;;;;;;;;;;;;22.59;40.80;99141.23;1712989;81;24503;-89
2022/05/19 10:16:03;;;;;;;;;;;;;;;22.63;40.50;99143.44;1716612;82;20250;-89
2022/05/19 10:18:43;;;;;;;;;;;;;;;22.69;40.48;99143.27;1721114;82;25467;-84
2022/05/19 10:21:24;;;;;;;;;;;;;;;22.73;39.93;99144.13;1690943;83;21986;-89
2022/05/19 10:23:52;;;;;;;;;;;;;;;22.76;39.51;99137.11;1710915;83;26214;-83
2022/05/19 10:26:20;;;;;;;;;;;;;;;22.85;39.40;99132.63;1740687;80;24497;-85
2022/05/19 10:31:44;;;;;;;;;;;;;;;22.69;38.72;99121.43;1744687;81;24811;-83
2022/05/19 10:34:21;;;;;;;;;;;;;;;22.69;38.60;99116.09;1746498;81;22359;-84
2022/05/19 10:37:07;;;;;;;;;;;;;;;22.84;38.25;99118.44;1746980;80;26142;-85
2022/05/19 10:39:35;;;;;;;;;;;;;;;22.89;37.79;99109.92;1709414;83;25211;-85
2022/05/19 10:42:15;;;;;;;;;;;;;;;22.98;37.63;99116.91;1709130;83;20246;-85
2022/05/19 10:44:44;;;;;;;;;;;;;;;23.06;37.63;99114.73;1699776;82;25683;-83
2022/05/19 10:47:21;;;;;;;;;;;;;;;23.09;37.52;99107.21;1727881;82;22090;-83
2022/05/19 10:49:56;;;;;;;;;;;;;;;22.98;37.13;99101.39;1683540;83;26022;-84
2022/05/19 10:52:26;;;;;;;;;;;;;;;23.04;37.12;99099.38;1695037;83;25205;-84
2022/05/19 10:54:58;;;;;;;;;;;;;;;23.15;36.91;99089.17;1733400;81;20231;-88
2022/05/19 10:57:31;;;;;;;;;;;;;;;23.27;36.76;99101.66;1721996;81;25548;-86
2022/05/19 11:00:18;;;;;;;;;;;;;;;23.31;36.60;99094.97;1729026;82;22624;-88
2022/05/19 11:02:49;;;;;;;;;;;;;;;23.31;36.58;99086.45;1724570;81;26061;-83
2022/05/19 11:05:20;;;;;;;;;;;;;;;23.40;36.47;99091.29;1728231;82;24486;-85
2022/05/19 11:07:54;;;;;;;;;;;;;;;23.49;36.38;99083.59;1692259;82;20451;-85
2022/05/19 11:10:25;;;;;;;;;;;;;;;23.56;36.45;99081.91;1662623;84;25465;-89
2022/05/19 11:12:53;;;;;;;;;;;;;;;23.58;36.33;99084.38;1693997;84;22076;-84
2022/05/19 11:15:26;;;;;;;;;;;;;;;23.70;36.40;99081.16;1670896;83;26072;-85
2022/05/19 11:18:00;;;;;;;;;;;;;;;23.77;36.33;99074.61;1688202;82;24506;-83
2022/05/19 11:20:28;;;;;;;;;;;;;;;23.88;36.32;99072.05;1690454;83;20306;-89
2022/05/19 11:22:56;;;;;;;;;;;;;;;23.96;36.25;99074.15;1664186;84;24928;-86
2022/05/19 11:28:16;;;;;;;;;;;;;;;24.05;36.18;99068.27;1696979;83;26212;-84
2022/05/19 11:30:47;;;;;;;;;;;;;;;24.18;36.02;99062.67;1684600;83;24546;-85
2022/05/19 11:33:14;;;;;;;;;;;;;;;24.26;35.73;99063.63;1677180;84;20225;-85
2022/05/19 11:35:42;;;;;;;;;;;;;;;24.26;35.27;99065.80;1687767;83;24804;-85
2022/05/19 11:38:19;;;;;;;;;;;;;;;24.28;35.19;99065.09;1732977;82;21872;-89
2022/05/19 11:40:58;;;;;;;;;;;;;;;24.30;35.05;99067.60;1702261;83;26053;-83
2022/05/19 11:43:43;;;;;;;;;;;;;;;24.26;34.93;99055.10;1708522;82;20530;-85
2022/05/19 11:46:12;;;;;;;;;;;;;;;24.31;34.88;99058.07;1689094;84;20469;-85
2022/05/19 11:55:12;;;;;;;;;;;;;;;24.36;34.71;99028.93;1689625;83;23088;-90
2022/05/19 11:57:45;;;;;;;;;;;;;;;24.47;34.94;99031.68;1690375;84;24592;-85
2022/05/19 12:00:13;;;;;;;;;;;;;;;24.61;35.03;99029.53;1734531;82;20484;-85
2022/05/19 12:02:48;;;;;;;;;;;;;;;24.67;35.02;99029.30;1740332;80;25413;-86
2022/05/19 12:05:17;;;;;;;;;;;;;;;24.72;34.79;99021.56;1729507;81;22140;-84
2022/05/19 12:07:45;;;;;;;;;;;;;;;24.84;35.04;99018.26;1730348;81;26804;-86
2022/05/19 12:10:13;;;;;;;;;;;;;;;24.97;35.09;99019.83;1728784;81;24623;-86
2022/05/19 12:12:41;;;;;;;;;;;;;;;25.03;34.63;99022.28;1729024;82;20238;-86
2022/05/19 12:15:17;;;;;;;;;;;;;;;25.10;34.55;99023.19;1728770;83;24941;-86
2022/05/19 12:17:45;;;;;;;;;;;;;;;25.11;34.47;99018.66;1729880;81;22111;-86
2022/05/19 12:20:19;;;;;;;;;;;;;;;25.18;34.50;99018.25;1729725;83;25958;-86
2022/05/19 12:22:48;;;;;;;;;;;;;;;25.23;34.28;99016.67;1690492;81;24432;-85
2022/05/19 12:25:16;;;;;;;;;;;;;;;25.28;34.24;99010.25;1725410;83;20515;-85
2022/05/19 12:27:45;;;;;;;;;;;;;;;25.22;34.06;99006.97;1729651;83;25541;-89
2022/05/19 12:33:15;;;;;;;;;;;;;;;25.36;34.10;99006.64;1710174;83;26037;-85
2022/05/19 12:35:41;;;;;;;;;;;;;;;25.38;33.71;98997.38;1700403;83;24726;-84
2022/05/19 12:38:09;;;;;;;;;;;;;;;25.41;33.44;98998.88;1722388;83;20870;-85
2022/05/19 12:40:55;;;;;;;;;;;;;;;25.43;33.22;98998.98;1725338;83;25526;-89
2022/05/19 12:43:24;;;;;;;;;;;;;;;25.45;32.91;98999.31;1719324;81;22090;-89
2022/05/19 12:45:51;;;;;;;;;;;;;;;25.40;32.86;98995.36;1705042;82;26126;-85
2022/05/19 12:48:21;;;;;;;;;;;;;;;25.43;33.08;98995.47;1699473;82;24495;-85
2022/05/19 12:50:51;;;;;;;;;;;;;;;25.53;33.32;98996.55;1712852;82;20270;-87
2022/05/19 12:53:25;;;;;;;;;;;;;;;25.63;33.25;99001.12;1706077;82;24798;-85
2022/05/19 12:55:53;;;;;;;;;;;;;;;25.64;33.08;98997.42;1700321;82;21970;-85
2022/05/19 12:58:40;;;;;;;;;;;;;;;25.63;32.89;98988.55;1705338;82;26739;-85
2022/05/19 13:01:19;;;;;;;;;;;;;;;25.59;32.71;98982.39;1603740;87;22221;-85
2022/05/19 13:03:46;;;;;;;;;;;;;;;25.62;32.30;98978.00;1684646;83;20754;-85
2022/05/19 13:06:14;;;;;;;;;;;;;;;25.73;32.52;98970.80;1650739;85;24779;-86
2022/05/19 13:08:43;;;;;;;;;;;;;;;25.77;32.29;98966.20;1714418;81;22227;-86
2022/05/19 13:11:10;;;;;;;;;;;;;;;25.86;32.41;98958.84;1711793;81;26054;-86
2022/05/19 13:13:42;;;;;;;;;;;;;;;25.92;32.37;98959.94;1698695;83;24407;-90
2022/05/19 13:16:13;;;;;;;;;;;;;;;25.97;32.10;98950.80;1700483;83;20262;-84
2022/05/19 13:18:41;;;;;;;;;;;;;;;26.01;31.92;98951.59;1654569;84;24760;-89
2022/05/19 13:21:13;;;;;;;;;;;;;;;26.03;31.68;98946.84;1722701;81;21650;-89
2022/05/19 13:23:40;;;;;;;;;;;;;;;26.08;31.58;98948.94;1720027;81;26881;-86
2022/05/19 13:26:08;;;;;;;;;;;;;;;26.09;31.32;98946.07;1707241;81;24622;-84
2022/05/19 13:31:21;;;;;;;;;;;;;;;26.24;31.33;98945.50;1719811;81;24819;-86
2022/05/19 13:33:49;;;;;;;;;;;;;;;26.34;31.31;98945.69;1710129;81;23082;-87
2022/05/19 13:36:20;;;;;;;;;;;;;;;26.50;31.33;98938.69;1712379;81;26047;-86